^^
Meteo Knjazevac Station Historical Data
Daily Summary for December 18, 2021 Units:  English    Metric   Both
Daily Weekly Monthly Yearly Custom
  High: Low: Average:
Temperature: 45.1 °F 30.1 °F 35 °F
Dew Point: 37.9 °F 28.2 °F 31.9 °F
Humidity: 96% 73% 89%
Wind Speed: 10mph 0mph 2.1mph
Wind Gust: 17mph - -
Wind- - WSW
Pressure: 30.34 in 30.23 in -
Precipitation: 0.00 in    
Historical Graphs
 
 
Tabular Data for December 18, 2021
Time Temperature Dew Point Pressure Wind Wind Speed Wind Gust Humidity Rainfall Rate (Hourly) solar Conditions
00:00 32.7 °F 31.2 °F 30.23 in Calm   4 mph 94% 0.00 in 0 W/m2
00:10 32.7 °F 31.2 °F 30.23 in Calm   2 mph 94% 0.00 in 0 W/m2
00:20 32.5 °F 31 °F 30.23 in North 2 mph 3 mph 94% 0.00 in 0 W/m2
00:30 32.4 °F 30.8 °F 30.23 in NE 2 mph 4 mph 94% 0.00 in 0 W/m2
00:40 32.2 °F 30.6 °F 30.23 in Calm   4 mph 94% 0.00 in 0 W/m2
00:50 32 °F 30.5 °F 30.23 in North 1 mph 3 mph 94% 0.00 in 0 W/m2
01:00 32 °F 30.5 °F 30.23 in South 2 mph 5 mph 94% 0.00 in 0 W/m2
01:10 32 °F 30.5 °F 30.23 in SW 1 mph 4 mph 94% 0.00 in 0 W/m2
01:20 32.2 °F 30.9 °F 30.23 in WNW 1 mph 3 mph 95% 0.00 in 0 W/m2
01:30 32.4 °F 31.1 °F 30.23 in Calm   2 mph 95% 0.00 in 0 W/m2
01:40 32.4 °F 31.1 °F 30.23 in NNE 1 mph 4 mph 95% 0.00 in 0 W/m2
01:50 32.5 °F 31.3 °F 30.23 in NE 2 mph 6 mph 95% 0.00 in 0 W/m2
02:00 32.4 °F 31.1 °F 30.23 in NE 1 mph 3 mph 95% 0.00 in 0 W/m2
02:10 32.5 °F 31.3 °F 30.23 in NNE 1 mph 3 mph 95% 0.00 in 0 W/m2
02:20 32.5 °F 31.3 °F 30.23 in NW 1 mph 2 mph 95% 0.00 in 0 W/m2
02:30 32.5 °F 31 °F 30.23 in WNW 1 mph 2 mph 94% 0.00 in 0 W/m2
02:40 32.7 °F 31.2 °F 30.23 in NNW 1 mph 3 mph 94% 0.00 in 0 W/m2
02:50 32.7 °F 31.2 °F 30.23 in NNW 1 mph 3 mph 94% 0.00 in 0 W/m2
03:00 32.7 °F 31.4 °F 30.23 in WNW 1 mph 3 mph 95% 0.00 in 0 W/m2
03:10 32.9 °F 31.4 °F 30.23 in Calm   2 mph 94% 0.00 in 0 W/m2
03:20 32.9 °F 31.4 °F 30.23 in Calm   2 mph 94% 0.00 in 0 W/m2
03:30 32.9 °F 31.4 °F 30.23 in North 2 mph 3 mph 94% 0.00 in 0 W/m2
03:40 32.9 °F 31.6 °F 30.24 in Calm   2 mph 95% 0.00 in 0 W/m2
03:50 32.7 °F 31.4 °F 30.24 in NW 1 mph 4 mph 95% 0.00 in 0 W/m2
04:00 32.7 °F 31.4 °F 30.24 in Calm   2 mph 95% 0.00 in 0 W/m2
04:10 32.7 °F 31.4 °F 30.24 in Calm   3 mph 95% 0.00 in 0 W/m2
04:20 32.7 °F 31.4 °F 30.24 in Calm   2 mph 95% 0.00 in 0 W/m2
04:30 32.7 °F 31.4 °F 30.24 in Calm   1 mph 95% 0.00 in 0 W/m2
04:40 32.9 °F 31.6 °F 30.24 in Calm   1 mph 95% 0.00 in 0 W/m2
04:50 32.9 °F 31.6 °F 30.23 in Calm   2 mph 95% 0.00 in 0 W/m2
05:00 32.9 °F 31.6 °F 30.24 in Calm   2 mph 95% 0.00 in 0 W/m2
05:10 32.9 °F 31.6 °F 30.24 in Calm   1 mph 95% 0.00 in 0 W/m2
05:20 33.1 °F 31.8 °F 30.24 in Calm   3 mph 95% 0.00 in 0 W/m2
05:30 33.1 °F 31.8 °F 30.24 in Calm   2 mph 95% 0.00 in 0 W/m2
05:40 33.1 °F 31.8 °F 30.25 in ENE 2 mph 3 mph 95% 0.00 in 0 W/m2
05:50 33.1 °F 31.8 °F 30.25 in Calm   2 mph 95% 0.00 in 0 W/m2
06:00 33.1 °F 31.8 °F 30.26 in Calm   2 mph 95% 0.00 in 0 W/m2
06:10 33.1 °F 31.8 °F 30.25 in Calm   2 mph 95% 0.00 in 0 W/m2
06:20 33.1 °F 31.8 °F 30.25 in Calm   2 mph 95% 0.00 in 0 W/m2
06:30 33.1 °F 31.8 °F 30.26 in Calm   2 mph 95% 0.00 in 0 W/m2
06:40 32.9 °F 31.6 °F 30.26 in NW 1 mph 3 mph 95% 0.00 in 0 W/m2
06:50 32.9 °F 31.6 °F 30.27 in Calm   3 mph 95% 0.00 in 0 W/m2
07:00 32.9 °F 31.6 °F 30.27 in Calm   2 mph 95% 0.00 in 3 W/m2
07:10 32.9 °F 31.6 °F 30.27 in NNW 2 mph 5 mph 95% 0.00 in 7 W/m2
07:20 32.5 °F 31.3 °F 30.27 in Calm   4 mph 95% 0.00 in 12 W/m2
07:30 32.4 °F 31.1 °F 30.27 in WNW 2 mph 4 mph 95% 0.00 in 26 W/m2
07:40 32.5 °F 31.3 °F 30.28 in NNW 1 mph 4 mph 95% 0.00 in 35 W/m2
07:50 32.4 °F 31.1 °F 30.28 in Calm   2 mph 95% 0.00 in 37 W/m2
08:00 32.2 °F 30.9 °F 30.28 in Calm   1 mph 95% 0.00 in 46 W/m2
08:10 32.2 °F 30.9 °F 30.28 in Calm   3 mph 95% 0.00 in 95 W/m2
08:20 32.5 °F 31.5 °F 30.28 in WNW 1 mph 2 mph 96% 0.00 in 116 W/m2
08:30 33.4 °F 32.4 °F 30.29 in Calm   2 mph 96% 0.00 in 135 W/m2
08:40 34.2 °F 32.9 °F 30.29 in WNW 1 mph 2 mph 95% 0.00 in 153 W/m2
08:50 35.1 °F 33.8 °F 30.30 in West 1 mph 2 mph 95% 0.00 in 171 W/m2
09:00 36.1 °F 34.6 °F 30.30 in SW 1 mph 4 mph 94% 0.00 in 113 W/m2
09:10 36.3 °F 34.5 °F 30.30 in SW 1 mph 4 mph 93% 0.00 in 181 W/m2
09:20 36.9 °F 34.5 °F 30.30 in Calm   4 mph 91% 0.00 in 222 W/m2
09:30 38.1 °F 35.5 °F 30.30 in ENE 1 mph 5 mph 90% 0.00 in 237 W/m2
09:40 39.4 °F 35.5 °F 30.30 in NNE 3 mph 7 mph 86% 0.00 in 168 W/m2
09:50 39.7 °F 35.6 °F 30.31 in North 1 mph 9 mph 85% 0.00 in 117 W/m2
10:00 39.6 °F 35.1 °F 30.31 in North 2 mph 6 mph 84% 0.00 in 127 W/m2
10:10 39.4 °F 34.9 °F 30.31 in NNE 1 mph 6 mph 84% 0.00 in 90 W/m2
10:20 39.2 °F 34.8 °F 30.31 in Calm   2 mph 84% 0.00 in 86 W/m2
10:30 39 °F 34.6 °F 30.30 in North 2 mph 6 mph 84% 0.00 in 164 W/m2
10:40 39.6 °F 35.1 °F 30.30 in Calm   3 mph 84% 0.00 in 262 W/m2
10:50 40.3 °F 35.5 °F 30.30 in West 1 mph 2 mph 83% 0.00 in 174 W/m2
11:00 40.5 °F 35.1 °F 30.30 in Calm   3 mph 81% 0.00 in 235 W/m2
11:10 41.6 °F 36.2 °F 30.30 in NE 3 mph 6 mph 81% 0.00 in 324 W/m2
11:20 43 °F 36.9 °F 30.30 in NW 1 mph 7 mph 79% 0.00 in 325 W/m2
11:30 43.7 °F 37 °F 30.30 in West 2 mph 4 mph 77% 0.00 in 325 W/m2
11:40 44.6 °F 37.9 °F 30.29 in SW 2 mph 6 mph 77% 0.00 in 324 W/m2
11:50 45.1 °F 37.3 °F 30.29 in SW 6 mph 7 mph 74% 0.00 in 321 W/m2
12:00 45.1 °F 37.3 °F 30.30 in West 1 mph 7 mph 74% 0.00 in 197 W/m2
12:10 44.6 °F 36.5 °F 30.30 in WSW 2 mph 4 mph 73% 0.00 in 173 W/m2
12:20 44.2 °F 36.1 °F 30.29 in WSW 3 mph 7 mph 73% 0.00 in 86 W/m2
12:30 43.7 °F 36.3 °F 30.29 in WSW 3 mph 8 mph 75% 0.00 in 106 W/m2
12:40 43 °F 36.6 °F 30.29 in SW 6 mph 8 mph 78% 0.00 in 168 W/m2
12:50 42.8 °F 36.4 °F 30.29 in SW 6 mph 9 mph 78% 0.00 in 276 W/m2
13:00 43.3 °F 36.6 °F 30.29 in SW 5 mph 9 mph 77% 0.00 in 264 W/m2
13:10 43.7 °F 36.3 °F 30.29 in SW 5 mph 8 mph 75% 0.00 in 171 W/m2
13:20 43.9 °F 36.5 °F 30.29 in West 5 mph 11 mph 75% 0.00 in 133 W/m2
13:30 43.3 °F 35.6 °F 30.29 in WNW 8 mph 13 mph 74% 0.00 in 44 W/m2
13:40 42.1 °F 34.7 °F 30.29 in West 7 mph 13 mph 75% 0.00 in 71 W/m2
13:50 41.4 °F 34.7 °F 30.29 in WNW 6 mph 12 mph 77% 0.00 in 104 W/m2
14:00 41.2 °F 34.8 °F 30.29 in West 7 mph 10 mph 78% 0.00 in 125 W/m2
14:10 40.8 °F 34.5 °F 30.29 in West 6 mph 13 mph 78% 0.00 in 100 W/m2
14:20 40.6 °F 34.3 °F 30.29 in West 8 mph 12 mph 78% 0.00 in 105 W/m2
14:30 40.5 °F 34.1 °F 30.29 in West 6 mph 9 mph 78% 0.00 in 86 W/m2
14:40 40.3 °F 34 °F 30.29 in West 6 mph 12 mph 78% 0.00 in 53 W/m2
14:50 39.9 °F 33.9 °F 30.30 in West 8 mph 13 mph 79% 0.00 in 43 W/m2
15:00 39.4 °F 33.4 °F 30.30 in West 10 mph 17 mph 79% 0.00 in 52 W/m2
15:10 39 °F 33 °F 30.30 in West 9 mph 17 mph 79% 0.00 in 38 W/m2
15:20 39 °F 33.4 °F 30.30 in West 6 mph 13 mph 80% 0.00 in 26 W/m2
15:30 38.7 °F 33 °F 30.31 in West 5 mph 12 mph 80% 0.00 in 12 W/m2
15:40 38.1 °F 32.5 °F 30.31 in WNW 6 mph 12 mph 80% 0.00 in 16 W/m2
15:50 37.5 °F 31.9 °F 30.31 in WNW 9 mph 14 mph 80% 0.00 in 8 W/m2
16:00 37 °F 31.8 °F 30.32 in West 7 mph 14 mph 81% 0.00 in 0 W/m2
16:10 36.5 °F 31.2 °F 30.32 in West 7 mph 13 mph 81% 0.00 in 0 W/m2
16:20 36.1 °F 31.5 °F 30.32 in WNW 6 mph 10 mph 83% 0.00 in 0 W/m2
16:30 35.8 °F 31.1 °F 30.33 in WNW 8 mph 15 mph 83% 0.00 in 0 W/m2
16:40 35.6 °F 31.2 °F 30.33 in WNW 6 mph 13 mph 84% 0.00 in 0 W/m2
16:50 35.4 °F 31.1 °F 30.33 in West 6 mph 10 mph 84% 0.00 in 0 W/m2
17:00 35.1 °F 30.7 °F 30.33 in West 5 mph 9 mph 84% 0.00 in 0 W/m2
17:10 35 °F 30.7 °F 30.33 in WNW 5 mph 9 mph 84% 0.00 in 0 W/m2
17:20 34.9 °F 30.5 °F 30.33 in WNW 5 mph 12 mph 84% 0.00 in 0 W/m2
17:30 34.7 °F 30.4 °F 30.33 in WNW 5 mph 11 mph 84% 0.00 in 0 W/m2
17:40 34.5 °F 30.5 °F 30.33 in West 5 mph 7 mph 85% 0.00 in 0 W/m2
17:50 34.2 °F 30.1 °F 30.34 in West 1 mph 5 mph 85% 0.00 in 0 W/m2
18:00 34 °F 29.9 °F 30.34 in NW 2 mph 6 mph 85% 0.00 in 0 W/m2
18:10 34 °F 29.9 °F 30.34 in WNW 1 mph 6 mph 85% 0.00 in 0 W/m2
18:20 33.6 °F 29.9 °F 30.34 in ENE 1 mph 4 mph 86% 0.00 in 0 W/m2
18:30 33.3 °F 29.5 °F 30.34 in Calm   2 mph 86% 0.00 in 0 W/m2
18:40 32.8 °F 29 °F 30.34 in North 2 mph 2 mph 86% 0.00 in 0 W/m2
18:50 32.5 °F 29.4 °F 30.34 in NE 1 mph 3 mph 88% 0.00 in 0 W/m2
19:00 32.1 °F 29 °F 30.34 in NW 1 mph 2 mph 88% 0.00 in 0 W/m2
19:10 31.8 °F 28.9 °F 30.34 in SSE 2 mph 5 mph 89% 0.00 in 0 W/m2
19:20 31.5 °F 28.6 °F 30.34 in South 1 mph 5 mph 89% 0.00 in 0 W/m2
19:30 31.3 °F 28.4 °F 30.34 in WSW 1 mph 2 mph 89% 0.00 in 0 W/m2
19:40 30.9 °F 28.3 °F 30.34 in Calm   2 mph 90% 0.00 in 0 W/m2
19:50 30.7 °F 28.2 °F 30.34 in WNW 2 mph 2 mph 90% 0.00 in 0 W/m2
20:00 30.7 °F 28.4 °F 30.34 in West 1 mph 3 mph 91% 0.00 in 0 W/m2
20:10 30.6 °F 28.2 °F 30.34 in WNW 1 mph 2 mph 91% 0.00 in 0 W/m2
20:20 30.6 °F 28.2 °F 30.34 in WNW 1 mph 2 mph 91% 0.00 in 0 W/m2
20:30 30.6 °F 28.8 °F 30.33 in West 2 mph 2 mph 93% 0.00 in 0 W/m2
20:40 30.6 °F 28.8 °F 30.33 in Calm   2 mph 93% 0.00 in 0 W/m2
20:50 30.6 °F 28.8 °F 30.33 in Calm   2 mph 93% 0.00 in 0 W/m2
21:00 30.6 °F 28.8 °F 30.34 in Calm   1 mph 93% 0.00 in 0 W/m2
21:10 30.6 °F 29 °F 30.34 in North 1 mph 2 mph 94% 0.00 in 0 W/m2
21:20 30.7 °F 29.2 °F 30.33 in Calm   2 mph 94% 0.00 in 0 W/m2
21:30 30.8 °F 29.3 °F 30.33 in Calm   2 mph 94% 0.00 in 0 W/m2
21:40 30.7 °F 29.2 °F 30.33 in WNW 1 mph 2 mph 94% 0.00 in 0 W/m2
21:50 30.7 °F 29.2 °F 30.33 in Calm   2 mph 94% 0.00 in 0 W/m2
22:00 30.7 °F 29 °F 30.32 in Calm   2 mph 93% 0.00 in 0 W/m2
22:10 30.9 °F 29.4 °F 30.32 in Calm   2 mph 94% 0.00 in 0 W/m2
22:20 30.9 °F 29.1 °F 30.32 in Calm   2 mph 93% 0.00 in 0 W/m2
22:30 30.9 °F 29.1 °F 30.32 in Calm   2 mph 93% 0.00 in 0 W/m2
22:40 31.2 °F 29.6 °F 30.32 in North 2 mph 4 mph 94% 0.00 in 0 W/m2
22:50 30.9 °F 29.4 °F 30.32 in Calm   3 mph 94% 0.00 in 0 W/m2
23:00 30.9 °F 29.4 °F 30.32 in Calm   2 mph 94% 0.00 in 0 W/m2
23:10 30.9 °F 29.4 °F 30.32 in Calm   2 mph 94% 0.00 in 0 W/m2
23:20 30.6 °F 29 °F 30.32 in Calm   1 mph 94% 0.00 in 0 W/m2
23:30 30.4 °F 28.9 °F 30.32 in North 1 mph 2 mph 94% 0.00 in 0 W/m2
23:40 30.4 °F 28.9 °F 30.32 in WNW 2 mph 5 mph 94% 0.00 in 0 W/m2
23:50 30.1 °F 28.6 °F 30.32 in NW 1 mph 3 mph 94% 0.00 in 0 W/m2
Knjazevac, Serbia
Compliments of Weather Underground - 2 mb